EFKKEFVA

Guest
Details From EFKK - Kruunupyy
To EFVA - VAASA
Flight Number -
Tags generated
Created
Modified
Stats Distance 55 nm / 101 km
Max Altitude 4,100 ft / 1,250 m
Waypoints 3
Social Downloads 1
Likes 0
Share VATSIM

Download

Looking for another format? Having issues loading an existing format? Contact us
Advertisement - Login to hide

Notes

Basic altitude profile: - Ascent Rate: 2500ft/min - Ascent Speed: 250kts - Cruise Altitude: 35000ft - Cruise Speed: 420kts - Descent Rate: 1500ft/min - Descent Speed: 250kts

Route

EFKK OMELU EFVA

ID Type Via Altitude Latitude Longitude Leg Dist Tot Dist Heading (true) Name
O EFKK APT - 0 ft / 0 m 63.72064˚ 23.13971˚ - 0 nm - Kruunupyy
OMELU FIX - 4,100 ft / 1,250 m 63.29722˚ 22.23417˚ 35 nm 35 nm 224° / 223° -
O EFVA APT - 0 ft / 0 m 63.05065˚ 21.76217˚ 19 nm 54 nm 221° / 221° VAASA

Altitude Profile

Advertisement - Login to hide

EFKK

Details ICAO EFKK (KOK)
Name Kruunupyy
Region Finland
Timezone Europe/Helsinki (UTC+2.0)
Stats Elevation 83 ft / 25 m (AMSL)
Location 63.720639° 23.139713°
Runways 2
Magnetic Variation 9.251° E

METAR

EFKK 182020Z 13002KT CAVOK M05/M05 Q1014

Decode

TAF

Not found

Departure Runways

ID Width Length Bearing (true) Bearing (mag) Surface Threshold Offset Overrun Length
01 197 ft / 60 m 8,183 ft / 2,494 m 10.63° 1.38° Asphalt 0 ft / 0 m 200 ft / 61 m
11 66 ft / 20 m 2,288 ft / 697 m 113.03° 103.78° Asphalt 0 ft / 0 m 0 ft / 0 m
19 197 ft / 60 m 8,183 ft / 2,494 m 190.63° 181.38° Asphalt 0 ft / 0 m 200 ft / 61 m
29 66 ft / 20 m 2,288 ft / 697 m 293.04° 283.79° Asphalt 0 ft / 0 m 0 ft / 0 m

EFVA

Details ICAO EFVA (VAA)
Name VAASA
Region Finland
Timezone Europe/Helsinki (UTC+2.0)
Stats Elevation 19 ft / 6 m (AMSL)
Location 63.050650° 21.762173°
Runways 1
Magnetic Variation 8.444° E

METAR

EFVA 182020Z AUTO 21003KT 9999 FEW011/// BKN016/// OVC027/// M01/M02 Q1014

Decode

TAF

TAF EFVA 182024Z 1821/1921 18003KT 9999 BKN020 BECMG 1900/1902 BKN008 TEMPO 1902/1906 5000 BR TEMPO 1906/1912 3000 BR BKN004 TEMPO 1912/1915 BKN012 BECMG 1918/1920 22013KT FEW010 BKN080

Decode

Destination Runways

ID Width Length Bearing (true) Bearing (mag) Surface Threshold Offset Overrun Length
16 157 ft / 48 m 8,707 ft / 2,654 m 163.02° 154.58° Asphalt 0 ft / 0 m 0 ft / 0 m
34 157 ft / 48 m 8,707 ft / 2,654 m 343.03° 334.59° Asphalt 525 ft / 160 m 0 ft / 0 m

Approach Navaids

Runway Type Ident Frequency Range Bearing (true) Bearing (mag) Slope Elevation
16 Localiser VA 108.50 MHz 18 nm / 33 km 163.20° 154.75° - 19 ft / 6 m (AMSL)
16 Glidescope VA 108.50 MHz 10 nm / 19 km 163.03° 154.58° 3.00° 19 ft / 6 m (AMSL)
16 DME VA 108.50 MHz 18 nm / 33 km - - - 78 ft / 24 m (AMSL)

Popular Alternatives